For quick login in and fast entrance.
M’enregistrer FAQ Connexion 
Poster un nouveau sujet Répondre au sujet  [ 1 message ] 

Lun 10 Déc 2018 10:01

 Un Boeing 737 de Belavia percute des feux de bord de piste
MessagePosté: Lun 10 Déc 2018 10:01 
Hors ligne
Amiral de l'Air
Avatar de l’utilisateur

Inscription: Mer 03 Juin 2009 14:15
Localisation: Près de Morlaix-Ploujean (LFRU)
Date: 09 décembre 2018
Heure: 18:08 LT

Type: Boeing 737-5Q8
Opérateur propriétaire: Belavia
Immatriculation : EW-290PA
C / n / msn: 27629

Décès: 0 / Occupants:
Autres décès: 0
Dommages à l'avion: Mineur

Lieu: Aéroport de Kiev-Borispol (KBP / UKBB) - Ukraine
Phase: Taxi
La nature: Passager Régulier International
Aéroport de départ: Aéroport national de Minsk (MSQ / UMMS)
Aéroport de destination: Aéroport de Kiev-Borispol (KBP / UKBB)

Image

Le vol B2845 de Belavia, un Boeing 737-500, a été endommagé au niveau de capot moteur n ° 2 et de son entrée d'air après avoir atterri sur la piste 18L de l'aéroport de Kiev-Borispol à 18h08.
Les rapports préliminaires indiquent que l'avion a Percuté les feux de bord de piste.

Les conditions météorologiques signalées au moment de l’incident (1608Z):
UKBB 091630Z 20004MPS 0400 0350NW R18L / 0550 R18R / 0400N FG VV002 00/00 Q1004 R88 / 611040 NOSIG
UKBB 091600Z 20003MPS 0600 0450NW R18L / 0750 RALPALA (1). 611040 NOSIG
UKBB 091530Z 21003MPS 0800 0550NW R18L / 0900N R18R / 0650N PRFG OVC002 01/01 Q1004 R88 / 611040 TEMPO 0400 -SHRASN FG BKN001 SCT015CB

Source: ASN
http://www.goklerdeyiz.net/taksi-sirasi ... na-carpti/

Image

Image

Le moteur semble avoir touché le bord de piste.
Image

_________________
Image


  
home Haut
 Profil  
Répondre en citant le message  
Aider le Site avec PayPal
Afficher les messages postés depuis:  Trier par  
Poster un nouveau sujet Répondre au sujet  [ 1 message ] 

Heures au format UTC + 1 heure


Qui est en ligne

Utilisateurs parcourant ce forum: Aucun utilisateur enregistré et 2 invités


Vous ne pouvez pas poster de nouveaux sujets
Vous ne pouvez pas répondre aux sujets
Vous ne pouvez pas éditer vos messages
Vous ne pouvez pas supprimer vos messages

Aller à:  
Flux RSS Flux RSS Liste des flux Liste des flux
0 Développé par phpBB® Forum Software © phpBB Group
Traduction par phpBB-fr.com
phpBB SEO